Frankfort, MI (49635)

10:20 PM EDT on May 04, 2015 (GMT -0400)
Crystal Lake Pinecrest | | Change Station
CLOSE
Current Station
Personal Weather Station
Location: Beulah, MI
Elevation: 607 ft
Nearby Weather Stations

Elev 607 ft 44.66 °N, 86.14 °W | Updated 5 minutes ago

Clear
Clear
52.2 °F
Feels Like 52.2 °F
N
0.0
Wind Variable Wind from SSE
Gusts 1.0 mph

Today
High -- | Low -- °F
--% Chance of Precip.
Yesterday
High -- | Low -- °F
Precip. -- in
6:31 AM 8:52 PM
Full, 99% visible
Pressure 30.23 in
Visibility 10.0 miles
Clouds Clear
Dew Point 38 °F
Humidity 58%
Rainfall 0.05 in
Snow Depth Not available.
UV 0 out of 12
Pollen 8.90 out of 12
Air Quality Not available.
Flu Activity Regional
METAR KFKS 050215Z AUTO 08003KT 10SM CLR 14/M01 A3023 RMK AO2 T01391009

More Conditions Fewer Conditions

Pressure 30.23 in
Visibility 10.0 miles
Clouds Clear
Dew Point 38 °F
Humidity 58%
Rainfall 0.05 in
Snow Depth Not available.
UV 0 out of 12
Pollen 8.90 out of 12
Air Quality Not available.
Flu Activity Regional
METAR KFKS 050215Z AUTO 08003KT 10SM CLR 14/M01 A3023 RMK AO2 T01391009

More Conditions Fewer Conditions

Nepal has a long way to go to dig out and rebuild from a devastating earthquake. We have teamed up with several charities and organizations to make contributing to the relief effort as easy as possible.
How you can help: Portlight Strategies | Red Cross
Nowcast | as of 10:00 PM EDT on May 4, 2015

At 11 PM...mostly clear. Temperature 49. Light winds. At 1 am...mostly clear. Temperature 44. Light winds. At 3 am...mostly clear. Temperature 42. Light winds. At 5 am...mostly clear. Temperature 40. Light winds.

×

10-Day Weather Forecast

Almanac

Astronomy

May. 04, 2015 Rise Set
Actual Time
Civil Twilight
Nautical Twilight
Astronomical Twilight
Moon
Length of Visible Light
Length of Day
Tomorrow will be .
, % of the Moon is Illuminated

Today's Extremes

State Highs State Lows

Community

WunderPhotos

Upload Photos

1,818,785 photos uploaded!

WunderBlogs® & News

Nearby

Air Quality

  Air Quality AQ Index Pollutant
Not available.

Snow Depth

Station Depth Elevation

Earthquake Activity

City Distance Mag. Time & Date
Minimum magnitude displayed is 2.5.

Coastal Water Temperatures

Place Temperature

Stations

Nearby Weather Stations

Station Location Temp. Windchill Dew Point Humidity Wind Precip. Elev Updated Type